createdAt,value
2019-05-10T00:01:31.159Z,11.37
2019-05-10T00:04:16.798Z,11.32
2019-05-10T00:07:02.406Z,11.39
2019-05-10T00:09:29.422Z,11.30
2019-05-10T00:12:14.985Z,11.27
2019-05-10T00:14:50.590Z,11.34
2019-05-10T00:17:21.374Z,11.30
2019-05-10T00:19:48.926Z,11.23
2019-05-10T00:22:16.404Z,11.28
2019-05-10T00:24:43.835Z,11.27
2019-05-10T00:27:11.237Z,11.19
2019-05-10T00:29:38.986Z,11.25
2019-05-10T00:32:06.293Z,11.13
2019-05-10T00:34:33.661Z,11.18
2019-05-10T00:37:00.876Z,11.24
2019-05-10T00:39:28.154Z,11.20
2019-05-10T00:41:55.402Z,11.22
2019-05-10T00:44:22.730Z,11.34
2019-05-10T00:46:50.061Z,11.24
2019-05-10T00:49:17.361Z,11.22
2019-05-10T00:51:44.654Z,11.34
2019-05-10T00:54:11.902Z,11.26
2019-05-10T00:56:39.148Z,11.17
2019-05-10T00:59:06.400Z,11.15
2019-05-10T01:01:33.646Z,11.17
2019-05-10T01:04:00.924Z,11.20
2019-05-10T01:06:28.177Z,11.15
2019-05-10T01:08:55.420Z,11.15
2019-05-10T01:11:22.717Z,11.22
2019-05-10T01:13:49.968Z,11.15
2019-05-10T01:16:17.211Z,11.14
2019-05-10T01:18:44.491Z,11.12
2019-05-10T01:21:11.723Z,11.12
2019-05-10T01:23:39.017Z,11.13
2019-05-10T01:26:06.245Z,11.02
2019-05-10T01:28:33.629Z,10.92
2019-05-10T01:31:00.861Z,11.01
2019-05-10T01:33:28.107Z,11.07
2019-05-10T01:35:55.427Z,11.18
2019-05-10T01:38:22.706Z,11.01
2019-05-10T01:40:50.052Z,11.08
2019-05-10T01:43:17.317Z,11.01
2019-05-10T01:45:44.584Z,11.16
2019-05-10T01:48:11.934Z,11.10
2019-05-10T01:50:39.663Z,11.14
2019-05-10T01:55:25.079Z,11.07
2019-05-10T01:57:52.366Z,11.03
2019-05-10T02:00:19.721Z,10.93
2019-05-10T02:02:47.183Z,10.87
2019-05-10T02:05:14.976Z,10.90
2019-05-10T02:07:42.321Z,10.87
2019-05-10T02:10:09.586Z,10.86
2019-05-10T02:12:37.855Z,10.84
2019-05-10T02:15:05.484Z,10.92
2019-05-10T02:17:32.890Z,10.73
2019-05-10T02:20:00.504Z,10.78
2019-05-10T02:22:27.812Z,10.70
2019-05-10T02:24:55.077Z,10.75
2019-05-10T02:27:22.344Z,10.62
2019-05-10T02:29:49.656Z,10.65
2019-05-10T02:32:16.869Z,10.67
2019-05-10T02:34:44.139Z,10.75
2019-05-10T02:37:11.438Z,10.72
2019-05-10T02:39:38.732Z,10.81
2019-05-10T02:42:05.965Z,10.79
2019-05-10T02:44:33.257Z,10.85
2019-05-10T02:47:01.607Z,10.86
2019-05-10T02:49:28.876Z,10.72
2019-05-10T02:51:56.174Z,10.69
2019-05-10T02:54:23.638Z,10.77
2019-05-10T02:56:52.188Z,10.52
2019-05-10T02:59:20.325Z,10.57
2019-05-10T03:01:47.587Z,10.21
2019-05-10T03:04:14.851Z,10.17
2019-05-10T03:06:43.115Z,10.04
2019-05-10T03:09:10.356Z,10.05
2019-05-10T03:11:48.608Z,9.98
2019-05-10T03:14:19.147Z,9.82
2019-05-10T03:16:49.077Z,9.80
2019-05-10T03:19:18.358Z,9.76
2019-05-10T03:21:48.716Z,9.69
2019-05-10T03:24:16.430Z,9.73
2019-05-10T03:26:50.699Z,9.70
2019-05-10T03:29:12.835Z,9.72
2019-05-10T03:31:40.074Z,9.82
2019-05-10T03:34:07.434Z,9.91
2019-05-10T03:36:34.916Z,10.03
2019-05-10T03:39:02.447Z,9.97
2019-05-10T03:41:31.127Z,10.08
2019-05-10T03:43:58.619Z,10.09
2019-05-10T03:46:25.922Z,10.10
2019-05-10T03:48:53.330Z,10.31
2019-05-10T03:51:20.885Z,10.32
2019-05-10T03:53:48.104Z,10.38
2019-05-10T03:56:15.673Z,10.36
2019-05-10T03:58:42.926Z,10.25
2019-05-10T04:01:10.170Z,10.31
2019-05-10T04:03:37.518Z,10.41
2019-05-10T04:06:04.844Z,10.46
2019-05-10T04:08:32.204Z,10.61
2019-05-10T04:10:59.516Z,10.61
2019-05-10T04:13:26.761Z,10.62
2019-05-10T04:15:54.862Z,10.76
2019-05-10T04:18:22.479Z,10.83
2019-05-10T04:20:49.802Z,10.85
2019-05-10T04:23:17.055Z,10.95
2019-05-10T04:25:44.265Z,10.84
2019-05-10T04:28:11.594Z,10.88
2019-05-10T04:30:38.950Z,10.83
2019-05-10T04:33:06.197Z,10.85
2019-05-10T04:35:33.450Z,10.82
2019-05-10T04:38:00.761Z,10.67
2019-05-10T04:40:28.026Z,10.64
2019-05-10T04:42:55.337Z,10.58
2019-05-10T04:45:22.727Z,10.76
2019-05-10T04:47:49.999Z,10.72
2019-05-10T04:50:17.436Z,10.72
2019-05-10T04:52:44.682Z,10.70
2019-05-10T04:55:11.925Z,10.70
2019-05-10T04:57:50.020Z,10.66
2019-05-10T05:00:09.455Z,10.50
2019-05-10T05:02:37.194Z,10.57
2019-05-10T05:05:06.984Z,10.62
2019-05-10T05:07:34.461Z,10.47
2019-05-10T05:10:03.630Z,10.52
2019-05-10T05:12:30.958Z,10.55
2019-05-10T05:14:58.289Z,10.60
2019-05-10T05:17:25.513Z,10.67
2019-05-10T05:19:52.790Z,10.68
2019-05-10T05:22:20.066Z,10.70
2019-05-10T05:24:47.330Z,10.81
2019-05-10T05:27:14.585Z,10.80
2019-05-10T05:29:41.869Z,10.73
2019-05-10T05:32:09.138Z,10.58
2019-05-10T05:34:36.368Z,10.59
2019-05-10T05:37:03.680Z,10.64
2019-05-10T05:39:30.901Z,10.62
2019-05-10T05:41:58.142Z,10.64
2019-05-10T05:44:26.283Z,10.63
2019-05-10T05:46:54.520Z,10.64
2019-05-10T05:49:21.819Z,10.78
2019-05-10T05:51:49.106Z,10.84
2019-05-10T05:54:20.622Z,10.84
2019-05-10T05:56:50.589Z,10.83
2019-05-10T05:59:17.463Z,10.93
2019-05-10T06:01:44.130Z,10.97
2019-05-10T06:04:12.755Z,11.03
2019-05-10T06:06:40.196Z,10.91
2019-05-10T06:09:07.455Z,10.85
2019-05-10T06:11:35.853Z,10.86
2019-05-10T06:14:10.613Z,10.76
2019-05-10T06:16:33.230Z,10.69
2019-05-10T06:19:00.508Z,10.77
2019-05-10T06:21:27.753Z,10.75
2019-05-10T06:23:54.999Z,10.70
2019-05-10T06:26:28.144Z,10.81
2019-05-10T06:29:03.751Z,10.64
2019-05-10T06:31:20.671Z,10.71
2019-05-10T06:33:48.023Z,10.72
2019-05-10T06:36:15.320Z,10.69
2019-05-10T06:38:42.662Z,10.60
2019-05-10T06:41:16.062Z,10.64
2019-05-10T06:43:39.123Z,10.55
2019-05-10T06:46:06.399Z,10.53
2019-05-10T06:48:33.860Z,10.55
2019-05-10T06:51:03.006Z,10.59
2019-05-10T06:53:30.386Z,10.52
2019-05-10T06:55:59.109Z,10.41
2019-05-10T06:58:30.522Z,10.47
2019-05-10T07:00:55.565Z,10.48
2019-05-10T07:03:23.995Z,10.41
2019-05-10T07:05:51.320Z,10.28
2019-05-10T07:08:20.530Z,10.36
2019-05-10T07:10:47.952Z,10.38
2019-05-10T07:13:15.289Z,10.29
2019-05-10T07:15:44.773Z,10.20
2019-05-10T07:18:16.768Z,10.07
2019-05-10T07:20:43.881Z,10.17
2019-05-10T07:23:11.404Z,10.37
2019-05-10T07:25:43.896Z,10.44
2019-05-10T07:28:09.343Z,10.39
2019-05-10T07:30:41.465Z,10.27
2019-05-10T07:33:09.134Z,10.29
2019-05-10T07:35:37.303Z,10.24
2019-05-10T07:38:05.761Z,10.08
2019-05-10T07:40:47.449Z,9.99
2019-05-10T07:43:24.778Z,10.07
2019-05-10T07:45:44.346Z,10.17
2019-05-10T07:48:11.806Z,10.41
2019-05-10T07:50:42.257Z,10.39
2019-05-10T07:53:09.486Z,10.52
2019-05-10T07:55:37.221Z,10.74
2019-05-10T07:58:05.293Z,10.91
2019-05-10T08:00:38.029Z,11.02
2019-05-10T08:03:13.189Z,11.17
2019-05-10T08:05:32.503Z,11.46
2019-05-10T08:07:59.962Z,11.62
2019-05-10T08:10:28.958Z,11.76
2019-05-10T08:12:58.988Z,11.93
2019-05-10T08:15:30.532Z,11.92
2019-05-10T08:17:54.849Z,11.87
2019-05-10T08:20:38.215Z,12.02
2019-05-10T08:22:52.513Z,12.23
2019-05-10T08:25:22.970Z,12.41
2019-05-10T08:27:54.998Z,12.18
2019-05-10T08:30:34.528Z,11.96
2019-05-10T08:33:09.437Z,12.02
2019-05-10T08:35:33.673Z,12.16
2019-05-10T08:38:02.320Z,12.25
2019-05-10T08:40:37.415Z,11.91
2019-05-10T08:43:06.660Z,12.05
2019-05-10T08:45:29.851Z,12.14
2019-05-10T08:48:00.752Z,12.29
2019-05-10T08:50:44.220Z,12.64
2019-05-10T08:52:56.878Z,13.50
2019-05-10T08:55:24.459Z,13.89
2019-05-10T08:57:52.465Z,13.73
2019-05-10T09:00:40.212Z,13.59
2019-05-10T09:02:51.444Z,13.50
2019-05-10T09:05:22.562Z,13.26
2019-05-10T09:07:48.423Z,13.13
2019-05-10T09:10:15.971Z,12.84
2019-05-10T09:12:51.059Z,12.50
2019-05-10T09:15:13.734Z,12.00
2019-05-10T09:17:42.764Z,11.57
2019-05-10T09:20:20.395Z,11.49
2019-05-10T09:22:43.235Z,11.64
2019-05-10T09:25:12.888Z,11.59
2019-05-10T09:27:42.921Z,11.57
2019-05-10T09:30:14.249Z,11.85
2019-05-10T09:32:43.394Z,11.80
2019-05-10T09:35:12.796Z,11.88
2019-05-10T09:37:42.078Z,12.14
2019-05-10T09:40:12.852Z,12.32
2019-05-10T09:42:43.431Z,12.69
2019-05-10T09:45:10.547Z,13.04
2019-05-10T09:47:39.108Z,14.14
2019-05-10T09:50:07.346Z,15.00
2019-05-10T09:52:34.933Z,14.89
2019-05-10T09:55:04.100Z,14.78
2019-05-10T09:57:32.362Z,14.83
2019-05-10T09:59:59.786Z,14.92
2019-05-10T10:02:33.438Z,15.20
2019-05-10T10:04:58.646Z,14.84
2019-05-10T10:07:29.344Z,14.10
2019-05-10T10:09:57.064Z,13.49
2019-05-10T10:12:24.647Z,13.18
2019-05-10T10:14:53.117Z,13.05
2019-05-10T10:17:20.729Z,12.90
2019-05-10T10:19:48.601Z,12.77
2019-05-10T10:22:17.377Z,12.51
2019-05-10T10:24:48.975Z,12.49
2019-05-10T10:27:17.051Z,12.38
2019-05-10T10:29:43.959Z,12.61
2019-05-10T10:32:11.699Z,12.74
2019-05-10T10:34:43.018Z,12.82
2019-05-10T10:37:08.735Z,13.07
2019-05-10T10:39:37.192Z,13.39
2019-05-10T10:42:08.742Z,13.33
2019-05-10T10:44:34.046Z,13.36
2019-05-10T10:47:01.364Z,13.35
2019-05-10T10:49:31.881Z,13.33
2019-05-10T10:51:58.203Z,13.28
2019-05-10T10:54:30.217Z,13.05
2019-05-10T10:56:54.774Z,12.87
2019-05-10T10:59:22.863Z,12.67
2019-05-10T11:02:23.236Z,12.48
2019-05-10T11:04:22.644Z,12.62
2019-05-10T11:06:50.479Z,12.97
2019-05-10T11:09:17.981Z,13.53
2019-05-10T11:11:45.307Z,14.45
2019-05-10T11:14:12.676Z,15.31
2019-05-10T11:16:41.286Z,16.21
2019-05-10T11:19:13.242Z,15.81
2019-05-10T11:21:38.296Z,15.70
2019-05-10T11:24:10.495Z,16.11
2019-05-10T11:26:36.980Z,15.92
2019-05-10T11:29:04.249Z,15.51
2019-05-10T11:31:31.506Z,16.39
2019-05-10T11:34:01.508Z,17.00
2019-05-10T11:36:27.957Z,17.05
2019-05-10T11:38:58.480Z,16.73
2019-05-10T11:41:24.753Z,16.47
2019-05-10T11:43:52.054Z,16.87
2019-05-10T11:46:20.895Z,16.31
2019-05-10T11:48:50.746Z,15.48
2019-05-10T11:51:17.800Z,15.59
2019-05-10T11:53:48.813Z,15.82
2019-05-10T11:56:15.702Z,16.14
2019-05-10T11:58:45.980Z,16.08
2019-05-10T12:01:17.682Z,16.06
2019-05-10T12:03:42.860Z,15.58
2019-05-10T12:06:12.205Z,15.43
2019-05-10T12:08:41.868Z,15.89
2019-05-10T12:11:25.412Z,16.34
2019-05-10T12:13:41.353Z,16.72
2019-05-10T12:16:16.119Z,16.74
2019-05-10T12:18:50.242Z,16.33
2019-05-10T12:21:17.108Z,16.32
2019-05-10T12:23:50.831Z,16.42
2019-05-10T12:27:13.356Z,16.86
2019-05-10T12:28:47.603Z,16.63
2019-05-10T12:31:17.221Z,16.93
2019-05-10T12:33:46.348Z,16.69
2019-05-10T12:36:23.535Z,16.62
2019-05-10T12:38:46.225Z,16.80
2019-05-10T12:41:15.539Z,17.85
2019-05-10T12:43:48.032Z,17.96
2019-05-10T12:46:15.582Z,17.27
2019-05-10T12:48:44.719Z,17.05
2019-05-10T12:51:16.326Z,17.37
2019-05-10T12:53:49.033Z,17.32
2019-05-10T12:56:14.626Z,17.15
2019-05-10T12:58:42.072Z,17.07
2019-05-10T13:01:09.632Z,16.37
2019-05-10T13:03:37.880Z,16.23
2019-05-10T13:06:05.249Z,16.23
2019-05-10T13:08:32.548Z,16.44
2019-05-10T13:10:59.907Z,17.29
2019-05-10T13:13:29.972Z,17.51
2019-05-10T13:15:56.412Z,17.85
2019-05-10T13:18:49.261Z,17.70
2019-05-10T13:20:54.459Z,17.60
2019-05-10T13:23:23.734Z,18.70
2019-05-10T13:25:52.855Z,18.77
2019-05-10T13:28:23.123Z,18.29
2019-05-10T13:30:53.552Z,17.78
2019-05-10T13:33:29.059Z,17.47
2019-05-10T13:35:56.600Z,17.12
2019-05-10T13:38:24.829Z,16.80
2019-05-10T13:40:54.027Z,16.96
2019-05-10T13:43:26.624Z,16.65
2019-05-10T13:45:54.210Z,15.94
2019-05-10T13:48:26.312Z,16.04
2019-05-10T13:50:54.421Z,15.87
2019-05-10T13:53:23.856Z,15.81
2019-05-10T13:55:54.036Z,15.83
2019-05-10T13:58:23.267Z,16.41
2019-05-10T14:00:52.389Z,16.87
2019-05-10T14:03:21.230Z,16.45
2019-05-10T14:05:49.958Z,16.43
2019-05-10T14:08:18.282Z,16.54
2019-05-10T14:10:49.447Z,16.62
2019-05-10T14:13:17.159Z,16.67
2019-05-10T14:15:44.855Z,17.00
2019-05-10T14:18:12.208Z,16.82
2019-05-10T14:20:39.742Z,16.28
2019-05-10T14:23:07.275Z,16.09
2019-05-10T14:25:36.774Z,16.05
2019-05-10T14:28:09.625Z,16.33
2019-05-10T14:30:33.281Z,16.90
2019-05-10T14:33:00.568Z,16.92
2019-05-10T14:35:27.948Z,16.43
2019-05-10T14:38:07.571Z,16.12
2019-05-10T14:40:30.515Z,16.15
2019-05-10T14:42:54.130Z,16.17
2019-05-10T14:45:21.424Z,16.04
2019-05-10T14:47:50.506Z,16.27
2019-05-10T14:50:25.511Z,16.29
2019-05-10T14:52:48.109Z,15.84
2019-05-10T14:55:15.356Z,15.70
2019-05-10T14:57:43.851Z,15.51
2019-05-10T15:00:11.435Z,15.51
2019-05-10T15:02:39.046Z,15.81
2019-05-10T15:05:09.122Z,15.93
2019-05-10T15:07:35.973Z,16.16
2019-05-10T15:10:03.552Z,16.08
2019-05-10T15:12:31.017Z,16.13
2019-05-10T15:14:58.363Z,16.26
2019-05-10T15:17:29.748Z,16.38
2019-05-10T15:19:59.701Z,16.53
2019-05-10T15:22:24.956Z,16.50
2019-05-10T15:24:52.322Z,16.30
2019-05-10T15:27:21.682Z,16.05
2019-05-10T15:29:48.800Z,15.85
2019-05-10T15:32:16.120Z,15.84
2019-05-10T15:34:43.459Z,15.59
2019-05-10T15:37:11.368Z,15.38
2019-05-10T15:39:39.251Z,15.23
2019-05-10T15:42:07.098Z,14.48
2019-05-10T15:44:34.523Z,15.45
2019-05-10T15:47:02.117Z,16.18
2019-05-10T15:49:29.564Z,16.68
2019-05-10T15:52:16.391Z,16.62
2019-05-10T15:54:26.186Z,16.17
2019-05-10T15:56:55.926Z,15.90
2019-05-10T15:59:24.092Z,15.53
2019-05-10T16:01:52.715Z,15.51
2019-05-10T16:04:21.307Z,15.25
2019-05-10T16:06:49.198Z,15.48
2019-05-10T16:09:18.953Z,15.49
2019-05-10T16:11:46.213Z,15.11
2019-05-10T16:14:13.627Z,15.04
2019-05-10T16:16:42.288Z,15.14
2019-05-10T16:19:13.079Z,15.04
2019-05-10T16:21:39.890Z,15.05
2019-05-10T16:24:07.282Z,14.85
2019-05-10T16:26:40.172Z,14.65
2019-05-10T16:29:17.447Z,14.31
2019-05-10T16:31:44.893Z,14.35
2019-05-10T16:34:12.182Z,14.41
2019-05-10T16:36:39.694Z,14.57
2019-05-10T16:39:08.089Z,14.58
2019-05-10T16:41:35.482Z,14.86
2019-05-10T16:44:03.189Z,14.71
2019-05-10T16:46:34.756Z,14.83
2019-05-10T16:49:02.974Z,15.03
2019-05-10T16:51:30.408Z,15.14
2019-05-10T16:53:59.524Z,15.34
2019-05-10T16:56:26.872Z,15.41
2019-05-10T16:58:55.100Z,15.78
2019-05-10T17:01:25.729Z,15.89
2019-05-10T17:04:00.029Z,15.83
2019-05-10T17:06:25.814Z,15.98
2019-05-10T17:08:54.263Z,15.87
2019-05-10T17:11:21.841Z,15.91
2019-05-10T17:13:52.022Z,15.80
2019-05-10T17:16:20.041Z,16.22
2019-05-10T17:18:49.653Z,16.34
2019-05-10T17:21:17.881Z,16.30
2019-05-10T17:23:49.371Z,16.23
2019-05-10T17:26:19.663Z,16.18
2019-05-10T17:28:53.366Z,16.11
2019-05-10T17:31:23.338Z,16.31
2019-05-10T17:33:53.727Z,16.10
2019-05-10T17:36:21.564Z,16.04
2019-05-10T17:38:53.483Z,15.73
2019-05-10T17:41:19.428Z,15.55
2019-05-10T17:43:48.527Z,15.55
2019-05-10T17:46:18.836Z,15.56
2019-05-10T17:48:47.481Z,15.54
2019-05-10T17:51:14.376Z,15.38
2019-05-10T17:53:41.772Z,15.35
2019-05-10T17:56:09.270Z,15.30
2019-05-10T17:58:36.687Z,15.39
2019-05-10T18:01:04.018Z,15.36
2019-05-10T18:03:31.485Z,15.40
2019-05-10T18:05:58.823Z,15.32
2019-05-10T18:08:27.126Z,15.23
2019-05-10T18:10:57.313Z,14.95
2019-05-10T18:13:23.675Z,14.95
2019-05-10T18:15:50.953Z,14.82
2019-05-10T18:18:18.274Z,14.53
2019-05-10T18:20:45.690Z,14.45
2019-05-10T18:23:20.136Z,14.37
2019-05-10T18:25:42.211Z,14.32
2019-05-10T18:28:09.560Z,14.33
2019-05-10T18:30:36.917Z,14.09
2019-05-10T18:33:06.774Z,14.00
2019-05-10T18:35:33.836Z,13.91
2019-05-10T18:38:01.212Z,13.89
2019-05-10T18:40:31.594Z,13.90
2019-05-10T18:43:03.664Z,13.73
2019-05-10T18:45:28.560Z,13.54
2019-05-10T18:47:56.274Z,13.58
2019-05-10T18:50:23.750Z,13.49
2019-05-10T18:52:51.231Z,13.49
2019-05-10T18:55:18.582Z,13.59
2019-05-10T18:57:50.793Z,13.24
2019-05-10T19:00:17.762Z,13.41
2019-05-10T19:02:49.775Z,13.40
2019-05-10T19:05:15.022Z,13.36
2019-05-10T19:07:42.467Z,13.30
2019-05-10T19:10:13.062Z,13.26
2019-05-10T19:12:59.798Z,13.31
2019-05-10T19:15:23.120Z,13.12
2019-05-10T19:17:50.524Z,13.17
2019-05-10T19:20:18.530Z,13.15
2019-05-10T19:22:46.035Z,13.11
2019-05-10T19:25:14.441Z,12.83
2019-05-10T19:27:44.755Z,12.60
2019-05-10T19:30:11.663Z,12.65
2019-05-10T19:32:38.974Z,12.62
2019-05-10T19:35:06.275Z,12.38
2019-05-10T19:37:34.700Z,12.39
2019-05-10T19:40:02.109Z,12.48
2019-05-10T19:42:31.694Z,12.53
2019-05-10T19:44:58.696Z,12.58
2019-05-10T19:47:26.051Z,12.50
2019-05-10T19:49:53.719Z,12.50
2019-05-10T19:52:26.105Z,12.57
2019-05-10T19:54:52.457Z,12.44
2019-05-10T19:57:19.862Z,12.41
2019-05-10T19:59:48.923Z,12.38
2019-05-10T20:02:16.550Z,12.41
2019-05-10T20:04:43.893Z,12.48
2019-05-10T20:07:11.219Z,12.50
2019-05-10T20:09:38.475Z,12.52
2019-05-10T20:12:05.778Z,12.59
2019-05-10T20:14:33.109Z,12.63
2019-05-10T20:17:00.494Z,12.68
2019-05-10T20:19:27.802Z,12.60
2019-05-10T20:21:55.120Z,12.49
2019-05-10T20:24:23.158Z,12.32
2019-05-10T20:26:50.768Z,12.24
2019-05-10T20:29:18.171Z,12.22
2019-05-10T20:31:45.589Z,12.39
2019-05-10T20:34:13.103Z,12.27
2019-05-10T20:36:40.363Z,12.06
2019-05-10T20:39:08.501Z,12.02
2019-05-10T20:41:35.766Z,12.07
2019-05-10T20:44:03.071Z,11.86
2019-05-10T20:46:30.453Z,11.90
2019-05-10T20:48:57.712Z,12.03
2019-05-10T20:51:24.994Z,12.17
2019-05-10T20:53:52.499Z,12.02
2019-05-10T20:56:20.900Z,11.83
2019-05-10T20:58:48.228Z,11.81
2019-05-10T21:01:15.527Z,11.87
2019-05-10T21:03:43.046Z,11.73
2019-05-10T21:06:10.561Z,11.71
2019-05-10T21:08:38.101Z,11.56
2019-05-10T21:11:05.550Z,11.54
2019-05-10T21:13:32.931Z,11.56
2019-05-10T21:16:00.346Z,11.54
2019-05-10T21:18:27.940Z,11.53
2019-05-10T21:20:55.249Z,11.44
2019-05-10T21:23:22.640Z,11.38
2019-05-10T21:25:49.976Z,11.35
2019-05-10T21:28:17.392Z,11.18
2019-05-10T21:30:44.792Z,11.11
2019-05-10T21:33:12.159Z,11.09
2019-05-10T21:35:39.510Z,10.99
2019-05-10T21:38:06.887Z,10.87
2019-05-10T21:40:34.304Z,10.79
2019-05-10T21:43:01.609Z,10.72
2019-05-10T21:45:28.878Z,10.61
2019-05-10T21:47:56.308Z,10.58
2019-05-10T21:50:23.738Z,10.55
2019-05-10T21:52:51.200Z,10.53
2019-05-10T21:55:18.498Z,10.42
2019-05-10T21:57:45.772Z,10.44
2019-05-10T22:00:15.557Z,10.27
2019-05-10T22:02:44.835Z,10.25
2019-05-10T22:05:12.283Z,10.25
2019-05-10T22:07:39.702Z,10.06
2019-05-10T22:10:07.077Z,10.08
2019-05-10T22:12:34.371Z,9.99
2019-05-10T22:15:01.736Z,9.68
2019-05-10T22:17:29.141Z,9.63
2019-05-10T22:19:56.470Z,9.52
2019-05-10T22:22:23.879Z,9.56
2019-05-10T22:24:51.202Z,9.61
2019-05-10T22:27:18.500Z,9.75
2019-05-10T22:29:45.814Z,9.87
2019-05-10T22:32:13.253Z,9.87
2019-05-10T22:34:40.735Z,9.89
2019-05-10T22:37:08.086Z,9.99
2019-05-10T22:39:35.449Z,9.92
2019-05-10T22:42:03.055Z,9.84
2019-05-10T22:44:30.604Z,9.74
2019-05-10T22:46:58.163Z,9.74
2019-05-10T22:49:25.621Z,9.63
2019-05-10T22:51:53.011Z,9.57
2019-05-10T22:54:20.458Z,9.46
2019-05-10T22:56:47.846Z,9.36
2019-05-10T22:59:15.608Z,9.21
2019-05-10T23:01:42.923Z,9.14
2019-05-10T23:04:11.235Z,9.08
2019-05-10T23:06:39.132Z,9.05
2019-05-10T23:09:23.482Z,9.12
2019-05-10T23:11:37.348Z,8.98
2019-05-10T23:14:05.308Z,8.87
2019-05-10T23:16:33.605Z,8.86
2019-05-10T23:19:00.906Z,8.92
2019-05-10T23:21:29.296Z,8.87
2019-05-10T23:23:56.595Z,8.76
2019-05-10T23:26:24.318Z,8.90
2019-05-10T23:28:51.763Z,9.03
2019-05-10T23:31:19.136Z,9.03
2019-05-10T23:33:46.402Z,8.97
2019-05-10T23:36:13.724Z,8.92
2019-05-10T23:38:41.096Z,8.92
2019-05-10T23:41:08.389Z,9.00
2019-05-10T23:43:35.746Z,8.99
2019-05-10T23:46:03.042Z,8.93
2019-05-10T23:48:30.428Z,9.04
2019-05-10T23:50:57.677Z,9.10
2019-05-10T23:53:24.947Z,9.14
2019-05-10T23:55:52.289Z,9.15
2019-05-10T23:58:19.663Z,9.04
